sensor_id;sensor_type;location;lat;lon;timestamp;P1;durP1;ratioP1;P2;durP2;ratioP2
27889;SDS011;15238;49.082;9.102;2023-05-10T00:00:53;1.30;;;0.68;;
27889;SDS011;15238;49.082;9.102;2023-05-10T00:02:53;0.80;;;0.73;;
27889;SDS011;15238;49.082;9.102;2023-05-10T00:04:54;1.20;;;0.93;;
27889;SDS011;15238;49.082;9.102;2023-05-10T00:06:54;2.75;;;1.00;;
27889;SDS011;15238;49.082;9.102;2023-05-10T00:08:55;0.85;;;0.80;;
27889;SDS011;15238;49.082;9.102;2023-05-10T00:10:55;0.80;;;0.70;;
27889;SDS011;15238;49.082;9.102;2023-05-10T00:12:56;2.85;;;0.60;;
27889;SDS011;15238;49.082;9.102;2023-05-10T00:14:57;1.63;;;0.47;;
27889;SDS011;15238;49.082;9.102;2023-05-10T00:16:57;0.98;;;0.68;;
27889;SDS011;15238;49.082;9.102;2023-05-10T00:18:58;0.60;;;0.55;;
27889;SDS011;15238;49.082;9.102;2023-05-10T00:20:58;0.65;;;0.57;;
27889;SDS011;15238;49.082;9.102;2023-05-10T00:22:59;0.60;;;0.60;;
27889;SDS011;15238;49.082;9.102;2023-05-10T00:24:59;0.93;;;0.70;;
27889;SDS011;15238;49.082;9.102;2023-05-10T00:27:00;0.50;;;0.50;;
27889;SDS011;15238;49.082;9.102;2023-05-10T00:29:00;0.90;;;0.68;;
27889;SDS011;15238;49.082;9.102;2023-05-10T00:31:01;1.45;;;0.73;;
27889;SDS011;15238;49.082;9.102;2023-05-10T00:33:02;0.60;;;0.43;;
27889;SDS011;15238;49.082;9.102;2023-05-10T00:35:02;0.50;;;0.50;;
27889;SDS011;15238;49.082;9.102;2023-05-10T00:37:03;0.50;;;0.50;;
27889;SDS011;15238;49.082;9.102;2023-05-10T00:39:04;0.60;;;0.38;;
27889;SDS011;15238;49.082;9.102;2023-05-10T00:41:04;0.52;;;0.52;;
27889;SDS011;15238;49.082;9.102;2023-05-10T00:43:05;0.57;;;0.50;;
27889;SDS011;15238;49.082;9.102;2023-05-10T00:45:05;0.85;;;0.60;;
27889;SDS011;15238;49.082;9.102;2023-05-10T00:47:06;1.17;;;0.60;;
27889;SDS011;15238;49.082;9.102;2023-05-10T00:49:07;0.52;;;0.52;;
27889;SDS011;15238;49.082;9.102;2023-05-10T00:51:08;0.40;;;0.40;;
27889;SDS011;15238;49.082;9.102;2023-05-10T00:53:08;2.38;;;0.57;;
27889;SDS011;15238;49.082;9.102;2023-05-10T00:55:10;0.77;;;0.63;;
27889;SDS011;15238;49.082;9.102;2023-05-10T00:57:12;0.80;;;0.80;;
27889;SDS011;15238;49.082;9.102;2023-05-10T00:59:12;0.77;;;0.60;;
27889;SDS011;15238;49.082;9.102;2023-05-10T01:01:13;0.80;;;0.80;;
27889;SDS011;15238;49.082;9.102;2023-05-10T01:03:14;0.93;;;0.77;;
27889;SDS011;15238;49.082;9.102;2023-05-10T01:05:14;1.08;;;0.98;;
27889;SDS011;15238;49.082;9.102;2023-05-10T01:07:15;0.95;;;0.88;;
27889;SDS011;15238;49.082;9.102;2023-05-10T01:09:15;0.70;;;0.70;;
27889;SDS011;15238;49.082;9.102;2023-05-10T01:11:16;0.93;;;0.85;;
27889;SDS011;15238;49.082;9.102;2023-05-10T01:13:30;2.15;;;1.20;;
27889;SDS011;15238;49.082;9.102;2023-05-10T01:15:39;2.55;;;1.00;;
27889;SDS011;15238;49.082;9.102;2023-05-10T01:17:41;1.30;;;0.75;;
27889;SDS011;15238;49.082;9.102;2023-05-10T01:19:44;2.03;;;0.80;;
27889;SDS011;15238;49.082;9.102;2023-05-10T01:24:09;0.75;;;0.75;;
27889;SDS011;15238;49.082;9.102;2023-05-10T01:26:39;1.13;;;0.75;;
27889;SDS011;15238;49.082;9.102;2023-05-10T01:31:22;1.58;;;0.88;;
27889;SDS011;15238;49.082;9.102;2023-05-10T01:33:47;1.83;;;0.80;;
27889;SDS011;15238;49.082;9.102;2023-05-10T01:38:29;0.95;;;0.95;;
27889;SDS011;15238;49.082;9.102;2023-05-10T01:40:37;1.67;;;0.70;;
27889;SDS011;15238;49.082;9.102;2023-05-10T01:42:51;1.15;;;1.00;;
27889;SDS011;15238;49.082;9.102;2023-05-10T01:47:05;1.45;;;0.80;;
27889;SDS011;15238;49.082;9.102;2023-05-10T01:49:23;1.10;;;1.00;;
27889;SDS011;15238;49.082;9.102;2023-05-10T01:51:27;2.25;;;0.90;;
27889;SDS011;15238;49.082;9.102;2023-05-10T01:53:36;0.70;;;0.70;;
27889;SDS011;15238;49.082;9.102;2023-05-10T01:55:39;1.42;;;0.90;;
27889;SDS011;15238;49.082;9.102;2023-05-10T01:57:46;2.08;;;1.00;;
27889;SDS011;15238;49.082;9.102;2023-05-10T01:59:50;0.80;;;0.80;;
27889;SDS011;15238;49.082;9.102;2023-05-10T02:01:52;0.75;;;0.75;;
27889;SDS011;15238;49.082;9.102;2023-05-10T02:03:54;0.70;;;0.70;;
27889;SDS011;15238;49.082;9.102;2023-05-10T02:05:57;2.10;;;0.90;;
27889;SDS011;15238;49.082;9.102;2023-05-10T02:07:58;1.08;;;0.90;;
27889;SDS011;15238;49.082;9.102;2023-05-10T02:10:04;1.20;;;1.10;;
27889;SDS011;15238;49.082;9.102;2023-05-10T02:12:09;1.38;;;1.05;;
27889;SDS011;15238;49.082;9.102;2023-05-10T02:14:13;5.10;;;0.95;;
27889;SDS011;15238;49.082;9.102;2023-05-10T02:16:16;2.63;;;1.20;;
27889;SDS011;15238;49.082;9.102;2023-05-10T02:18:18;1.20;;;0.93;;
27889;SDS011;15238;49.082;9.102;2023-05-10T02:20:19;1.13;;;1.10;;
27889;SDS011;15238;49.082;9.102;2023-05-10T02:22:21;2.08;;;1.27;;
27889;SDS011;15238;49.082;9.102;2023-05-10T02:24:23;1.15;;;0.98;;
27889;SDS011;15238;49.082;9.102;2023-05-10T02:26:24;3.92;;;1.13;;
27889;SDS011;15238;49.082;9.102;2023-05-10T02:28:27;1.15;;;1.02;;
27889;SDS011;15238;49.082;9.102;2023-05-10T02:30:29;1.77;;;1.30;;
27889;SDS011;15238;49.082;9.102;2023-05-10T02:32:32;3.33;;;1.30;;
27889;SDS011;15238;49.082;9.102;2023-05-10T02:34:33;1.30;;;1.10;;
27889;SDS011;15238;49.082;9.102;2023-05-10T02:36:34;1.90;;;1.02;;
27889;SDS011;15238;49.082;9.102;2023-05-10T02:38:36;1.05;;;1.02;;
27889;SDS011;15238;49.082;9.102;2023-05-10T02:40:37;1.00;;;0.90;;
27889;SDS011;15238;49.082;9.102;2023-05-10T02:42:38;4.03;;;1.10;;
27889;SDS011;15238;49.082;9.102;2023-05-10T02:44:42;1.20;;;1.10;;
27889;SDS011;15238;49.082;9.102;2023-05-10T02:46:45;2.80;;;1.08;;
27889;SDS011;15238;49.082;9.102;2023-05-10T02:48:46;1.35;;;1.00;;
27889;SDS011;15238;49.082;9.102;2023-05-10T02:50:47;1.17;;;1.08;;
27889;SDS011;15238;49.082;9.102;2023-05-10T02:52:51;1.48;;;1.38;;
27889;SDS011;15238;49.082;9.102;2023-05-10T02:54:54;1.92;;;1.60;;
27889;SDS011;15238;49.082;9.102;2023-05-10T02:56:58;4.20;;;1.48;;
27889;SDS011;15238;49.082;9.102;2023-05-10T02:59:00;4.50;;;1.42;;
27889;SDS011;15238;49.082;9.102;2023-05-10T03:01:01;2.05;;;1.20;;
27889;SDS011;15238;49.082;9.102;2023-05-10T03:03:01;3.92;;;1.50;;
27889;SDS011;15238;49.082;9.102;2023-05-10T03:05:02;2.22;;;1.50;;
27889;SDS011;15238;49.082;9.102;2023-05-10T03:07:03;2.00;;;1.50;;
27889;SDS011;15238;49.082;9.102;2023-05-10T03:09:04;1.33;;;1.17;;
27889;SDS011;15238;49.082;9.102;2023-05-10T03:13:39;1.30;;;1.20;;
27889;SDS011;15238;49.082;9.102;2023-05-10T03:16:14;2.92;;;1.25;;
27889;SDS011;15238;49.082;9.102;2023-05-10T03:18:23;3.42;;;1.50;;
27889;SDS011;15238;49.082;9.102;2023-05-10T03:20:29;2.53;;;1.50;;
27889;SDS011;15238;49.082;9.102;2023-05-10T03:22:37;12.15;;;1.40;;
27889;SDS011;15238;49.082;9.102;2023-05-10T03:24:42;1.95;;;1.50;;
27889;SDS011;15238;49.082;9.102;2023-05-10T03:26:45;2.75;;;1.33;;
27889;SDS011;15238;49.082;9.102;2023-05-10T03:28:46;5.10;;;1.80;;
27889;SDS011;15238;49.082;9.102;2023-05-10T03:30:48;1.75;;;1.65;;
27889;SDS011;15238;49.082;9.102;2023-05-10T03:32:50;3.40;;;1.70;;
27889;SDS011;15238;49.082;9.102;2023-05-10T03:34:50;4.35;;;2.03;;
27889;SDS011;15238;49.082;9.102;2023-05-10T03:36:51;4.07;;;2.17;;
27889;SDS011;15238;49.082;9.102;2023-05-10T03:38:52;3.03;;;2.30;;
27889;SDS011;15238;49.082;9.102;2023-05-10T03:40:52;4.47;;;2.25;;
27889;SDS011;15238;49.082;9.102;2023-05-10T03:42:53;2.30;;;2.10;;
27889;SDS011;15238;49.082;9.102;2023-05-10T03:44:53;2.83;;;2.53;;
27889;SDS011;15238;49.082;9.102;2023-05-10T03:46:54;4.57;;;2.80;;
27889;SDS011;15238;49.082;9.102;2023-05-10T03:48:55;4.25;;;2.70;;
27889;SDS011;15238;49.082;9.102;2023-05-10T03:50:55;3.20;;;2.90;;
27889;SDS011;15238;49.082;9.102;2023-05-10T03:52:56;3.83;;;2.95;;
27889;SDS011;15238;49.082;9.102;2023-05-10T03:54:57;6.75;;;3.17;;
27889;SDS011;15238;49.082;9.102;2023-05-10T03:56:58;7.05;;;3.55;;
27889;SDS011;15238;49.082;9.102;2023-05-10T03:58:58;10.93;;;3.63;;
27889;SDS011;15238;49.082;9.102;2023-05-10T04:00:59;3.78;;;3.35;;
27889;SDS011;15238;49.082;9.102;2023-05-10T04:02:59;4.00;;;3.45;;
27889;SDS011;15238;49.082;9.102;2023-05-10T04:05:00;5.05;;;3.13;;
27889;SDS011;15238;49.082;9.102;2023-05-10T04:07:01;3.30;;;2.95;;
27889;SDS011;15238;49.082;9.102;2023-05-10T04:09:02;4.28;;;3.38;;
27889;SDS011;15238;49.082;9.102;2023-05-10T04:11:04;3.90;;;3.15;;
27889;SDS011;15238;49.082;9.102;2023-05-10T04:13:06;4.22;;;3.28;;
27889;SDS011;15238;49.082;9.102;2023-05-10T04:15:07;3.88;;;3.47;;
27889;SDS011;15238;49.082;9.102;2023-05-10T04:17:08;6.03;;;3.33;;
27889;SDS011;15238;49.082;9.102;2023-05-10T04:19:08;4.00;;;3.67;;
27889;SDS011;15238;49.082;9.102;2023-05-10T04:21:12;6.97;;;4.13;;
27889;SDS011;15238;49.082;9.102;2023-05-10T04:23:16;5.60;;;3.50;;
27889;SDS011;15238;49.082;9.102;2023-05-10T04:25:16;5.35;;;3.95;;
27889;SDS011;15238;49.082;9.102;2023-05-10T04:27:18;3.72;;;3.42;;
27889;SDS011;15238;49.082;9.102;2023-05-10T04:29:19;3.15;;;2.65;;
27889;SDS011;15238;49.082;9.102;2023-05-10T04:31:19;3.35;;;2.80;;
27889;SDS011;15238;49.082;9.102;2023-05-10T04:33:20;4.35;;;3.20;;
27889;SDS011;15238;49.082;9.102;2023-05-10T04:35:20;2.63;;;2.42;;
27889;SDS011;15238;49.082;9.102;2023-05-10T04:37:21;3.80;;;2.85;;
27889;SDS011;15238;49.082;9.102;2023-05-10T04:39:22;3.10;;;2.78;;
27889;SDS011;15238;49.082;9.102;2023-05-10T04:41:23;3.78;;;3.47;;
27889;SDS011;15238;49.082;9.102;2023-05-10T04:43:25;4.20;;;2.75;;
27889;SDS011;15238;49.082;9.102;2023-05-10T04:45:26;3.22;;;2.92;;
27889;SDS011;15238;49.082;9.102;2023-05-10T04:47:26;5.40;;;3.08;;
27889;SDS011;15238;49.082;9.102;2023-05-10T04:49:27;5.80;;;3.10;;
27889;SDS011;15238;49.082;9.102;2023-05-10T04:51:28;4.93;;;3.38;;
27889;SDS011;15238;49.082;9.102;2023-05-10T04:53:28;5.78;;;3.47;;
27889;SDS011;15238;49.082;9.102;2023-05-10T04:55:29;3.50;;;3.20;;
27889;SDS011;15238;49.082;9.102;2023-05-10T04:57:29;6.60;;;3.22;;
27889;SDS011;15238;49.082;9.102;2023-05-10T04:59:30;3.80;;;3.40;;
27889;SDS011;15238;49.082;9.102;2023-05-10T05:01:32;11.18;;;3.70;;
27889;SDS011;15238;49.082;9.102;2023-05-10T05:03:32;4.55;;;3.33;;
27889;SDS011;15238;49.082;9.102;2023-05-10T05:05:33;4.53;;;3.03;;
27889;SDS011;15238;49.082;9.102;2023-05-10T05:07:34;6.50;;;3.20;;
27889;SDS011;15238;49.082;9.102;2023-05-10T05:09:34;3.42;;;3.13;;
27889;SDS011;15238;49.082;9.102;2023-05-10T05:11:35;5.57;;;3.53;;
27889;SDS011;15238;49.082;9.102;2023-05-10T05:13:35;3.42;;;3.13;;
27889;SDS011;15238;49.082;9.102;2023-05-10T05:15:36;3.60;;;2.80;;
27889;SDS011;15238;49.082;9.102;2023-05-10T05:17:36;3.28;;;2.67;;
27889;SDS011;15238;49.082;9.102;2023-05-10T05:19:37;3.40;;;2.55;;
27889;SDS011;15238;49.082;9.102;2023-05-10T05:21:38;2.75;;;2.50;;
27889;SDS011;15238;49.082;9.102;2023-05-10T05:23:38;4.45;;;2.75;;
27889;SDS011;15238;49.082;9.102;2023-05-10T05:25:39;6.80;;;2.80;;
27889;SDS011;15238;49.082;9.102;2023-05-10T05:27:40;6.78;;;3.30;;
27889;SDS011;15238;49.082;9.102;2023-05-10T05:29:40;4.20;;;2.83;;
27889;SDS011;15238;49.082;9.102;2023-05-10T05:31:41;4.68;;;2.70;;
27889;SDS011;15238;49.082;9.102;2023-05-10T05:33:41;5.13;;;2.58;;
27889;SDS011;15238;49.082;9.102;2023-05-10T05:35:42;3.05;;;2.75;;
27889;SDS011;15238;49.082;9.102;2023-05-10T05:37:50;3.45;;;2.58;;
27889;SDS011;15238;49.082;9.102;2023-05-10T05:39:51;3.63;;;2.80;;
27889;SDS011;15238;49.082;9.102;2023-05-10T05:41:51;6.15;;;2.65;;
27889;SDS011;15238;49.082;9.102;2023-05-10T05:43:52;3.53;;;2.75;;
27889;SDS011;15238;49.082;9.102;2023-05-10T05:45:52;5.53;;;2.90;;
27889;SDS011;15238;49.082;9.102;2023-05-10T05:47:53;12.52;;;4.85;;
27889;SDS011;15238;49.082;9.102;2023-05-10T05:49:54;3.13;;;2.50;;
27889;SDS011;15238;49.082;9.102;2023-05-10T05:51:58;3.65;;;2.53;;
27889;SDS011;15238;49.082;9.102;2023-05-10T05:54:02;3.25;;;2.47;;
27889;SDS011;15238;49.082;9.102;2023-05-10T05:56:04;2.67;;;2.47;;
27889;SDS011;15238;49.082;9.102;2023-05-10T05:58:04;2.70;;;2.50;;
27889;SDS011;15238;49.082;9.102;2023-05-10T06:00:05;3.97;;;2.75;;
27889;SDS011;15238;49.082;9.102;2023-05-10T06:02:06;3.42;;;2.63;;
27889;SDS011;15238;49.082;9.102;2023-05-10T06:04:07;11.02;;;3.22;;
27889;SDS011;15238;49.082;9.102;2023-05-10T06:06:08;4.35;;;2.80;;
27889;SDS011;15238;49.082;9.102;2023-05-10T06:08:08;4.25;;;2.90;;
27889;SDS011;15238;49.082;9.102;2023-05-10T06:10:09;4.15;;;2.72;;
27889;SDS011;15238;49.082;9.102;2023-05-10T06:12:10;2.65;;;2.45;;
27889;SDS011;15238;49.082;9.102;2023-05-10T06:14:11;4.90;;;2.75;;
27889;SDS011;15238;49.082;9.102;2023-05-10T06:16:12;4.85;;;2.70;;
27889;SDS011;15238;49.082;9.102;2023-05-10T06:18:13;4.95;;;2.38;;
27889;SDS011;15238;49.082;9.102;2023-05-10T06:20:13;2.78;;;2.03;;
27889;SDS011;15238;49.082;9.102;2023-05-10T06:22:14;2.75;;;2.33;;
27889;SDS011;15238;49.082;9.102;2023-05-10T06:24:14;3.15;;;2.10;;
27889;SDS011;15238;49.082;9.102;2023-05-10T06:26:15;8.50;;;2.60;;
27889;SDS011;15238;49.082;9.102;2023-05-10T06:28:16;3.88;;;2.35;;
27889;SDS011;15238;49.082;9.102;2023-05-10T06:30:16;5.22;;;2.13;;
27889;SDS011;15238;49.082;9.102;2023-05-10T06:32:17;3.08;;;2.13;;
27889;SDS011;15238;49.082;9.102;2023-05-10T06:34:17;6.78;;;2.28;;
27889;SDS011;15238;49.082;9.102;2023-05-10T06:36:18;5.05;;;1.98;;
27889;SDS011;15238;49.082;9.102;2023-05-10T06:38:19;4.53;;;1.90;;
27889;SDS011;15238;49.082;9.102;2023-05-10T06:40:19;2.38;;;1.92;;
27889;SDS011;15238;49.082;9.102;2023-05-10T06:42:20;3.78;;;1.60;;
27889;SDS011;15238;49.082;9.102;2023-05-10T06:44:20;2.30;;;2.10;;
27889;SDS011;15238;49.082;9.102;2023-05-10T06:46:21;2.72;;;2.15;;
27889;SDS011;15238;49.082;9.102;2023-05-10T06:48:21;3.47;;;1.80;;
27889;SDS011;15238;49.082;9.102;2023-05-10T06:50:22;3.95;;;1.60;;
27889;SDS011;15238;49.082;9.102;2023-05-10T06:52:23;2.67;;;1.48;;
27889;SDS011;15238;49.082;9.102;2023-05-10T06:54:23;4.93;;;1.50;;
27889;SDS011;15238;49.082;9.102;2023-05-10T06:56:24;1.70;;;1.23;;
27889;SDS011;15238;49.082;9.102;2023-05-10T06:58:24;2.88;;;1.50;;
27889;SDS011;15238;49.082;9.102;2023-05-10T07:00:25;1.55;;;1.30;;
27889;SDS011;15238;49.082;9.102;2023-05-10T07:02:25;2.20;;;1.17;;
27889;SDS011;15238;49.082;9.102;2023-05-10T07:04:26;2.20;;;1.13;;
27889;SDS011;15238;49.082;9.102;2023-05-10T07:06:27;2.75;;;1.30;;
27889;SDS011;15238;49.082;9.102;2023-05-10T07:08:29;2.10;;;1.15;;
27889;SDS011;15238;49.082;9.102;2023-05-10T07:10:33;4.57;;;1.10;;
27889;SDS011;15238;49.082;9.102;2023-05-10T07:12:34;2.45;;;1.05;;
27889;SDS011;15238;49.082;9.102;2023-05-10T07:14:34;1.35;;;1.20;;
27889;SDS011;15238;49.082;9.102;2023-05-10T07:16:35;2.97;;;0.95;;
27889;SDS011;15238;49.082;9.102;2023-05-10T07:18:36;4.38;;;1.02;;
27889;SDS011;15238;49.082;9.102;2023-05-10T07:20:36;2.75;;;1.02;;
27889;SDS011;15238;49.082;9.102;2023-05-10T07:22:37;2.15;;;1.20;;
27889;SDS011;15238;49.082;9.102;2023-05-10T07:24:37;1.38;;;1.02;;
27889;SDS011;15238;49.082;9.102;2023-05-10T07:26:38;2.88;;;1.00;;
27889;SDS011;15238;49.082;9.102;2023-05-10T07:28:38;1.00;;;0.70;;
27889;SDS011;15238;49.082;9.102;2023-05-10T07:30:39;0.68;;;0.50;;
27889;SDS011;15238;49.082;9.102;2023-05-10T07:32:40;0.90;;;0.60;;
27889;SDS011;15238;49.082;9.102;2023-05-10T07:34:41;1.00;;;0.75;;
27889;SDS011;15238;49.082;9.102;2023-05-10T07:36:42;1.17;;;0.70;;
27889;SDS011;15238;49.082;9.102;2023-05-10T07:38:43;2.55;;;0.93;;
27889;SDS011;15238;49.082;9.102;2023-05-10T07:40:43;0.75;;;0.55;;
27889;SDS011;15238;49.082;9.102;2023-05-10T07:42:44;3.80;;;0.77;;
27889;SDS011;15238;49.082;9.102;2023-05-10T07:44:44;1.77;;;0.77;;
27889;SDS011;15238;49.082;9.102;2023-05-10T07:46:45;0.82;;;0.60;;
27889;SDS011;15238;49.082;9.102;2023-05-10T07:48:46;0.63;;;0.60;;
27889;SDS011;15238;49.082;9.102;2023-05-10T07:50:47;1.95;;;0.60;;
27889;SDS011;15238;49.082;9.102;2023-05-10T07:52:47;2.70;;;0.75;;
27889;SDS011;15238;49.082;9.102;2023-05-10T07:54:48;2.42;;;0.85;;
27889;SDS011;15238;49.082;9.102;2023-05-10T07:56:48;3.90;;;0.82;;
27889;SDS011;15238;49.082;9.102;2023-05-10T07:58:49;0.85;;;0.85;;
27889;SDS011;15238;49.082;9.102;2023-05-10T08:00:50;1.80;;;0.68;;
27889;SDS011;15238;49.082;9.102;2023-05-10T08:02:50;2.63;;;0.60;;
27889;SDS011;15238;49.082;9.102;2023-05-10T08:04:51;0.55;;;0.50;;
27889;SDS011;15238;49.082;9.102;2023-05-10T08:06:51;3.17;;;0.57;;
27889;SDS011;15238;49.082;9.102;2023-05-10T08:08:52;2.85;;;0.68;;
27889;SDS011;15238;49.082;9.102;2023-05-10T08:10:54;0.80;;;0.50;;
27889;SDS011;15238;49.082;9.102;2023-05-10T08:12:54;2.10;;;0.40;;
27889;SDS011;15238;49.082;9.102;2023-05-10T08:14:55;0.80;;;0.57;;
27889;SDS011;15238;49.082;9.102;2023-05-10T08:16:55;0.75;;;0.40;;
27889;SDS011;15238;49.082;9.102;2023-05-10T08:18:56;1.23;;;0.50;;
27889;SDS011;15238;49.082;9.102;2023-05-10T08:20:56;0.35;;;0.35;;
27889;SDS011;15238;49.082;9.102;2023-05-10T08:22:57;0.45;;;0.40;;
27889;SDS011;15238;49.082;9.102;2023-05-10T08:24:57;1.98;;;0.50;;
27889;SDS011;15238;49.082;9.102;2023-05-10T08:26:58;1.58;;;0.38;;
27889;SDS011;15238;49.082;9.102;2023-05-10T08:28:58;1.40;;;0.35;;
27889;SDS011;15238;49.082;9.102;2023-05-10T08:30:59;1.02;;;0.43;;
27889;SDS011;15238;49.082;9.102;2023-05-10T08:32:59;0.82;;;0.55;;
27889;SDS011;15238;49.082;9.102;2023-05-10T08:35:00;0.75;;;0.40;;
27889;SDS011;15238;49.082;9.102;2023-05-10T08:37:01;0.60;;;0.40;;
27889;SDS011;15238;49.082;9.102;2023-05-10T08:39:01;2.05;;;0.90;;
27889;SDS011;15238;49.082;9.102;2023-05-10T08:41:02;1.48;;;0.70;;
27889;SDS011;15238;49.082;9.102;2023-05-10T08:43:08;0.50;;;0.50;;
27889;SDS011;15238;49.082;9.102;2023-05-10T08:45:10;0.43;;;0.43;;
27889;SDS011;15238;49.082;9.102;2023-05-10T08:47:11;1.27;;;0.90;;
27889;SDS011;15238;49.082;9.102;2023-05-10T08:49:16;0.57;;;0.57;;
27889;SDS011;15238;49.082;9.102;2023-05-10T08:51:24;0.95;;;0.60;;
27889;SDS011;15238;49.082;9.102;2023-05-10T08:53:27;3.70;;;0.77;;
27889;SDS011;15238;49.082;9.102;2023-05-10T08:55:31;1.52;;;0.77;;
27889;SDS011;15238;49.082;9.102;2023-05-10T08:57:33;1.58;;;0.60;;
27889;SDS011;15238;49.082;9.102;2023-05-10T08:59:33;0.75;;;0.55;;
27889;SDS011;15238;49.082;9.102;2023-05-10T09:01:35;2.00;;;0.70;;
27889;SDS011;15238;49.082;9.102;2023-05-10T09:03:38;1.42;;;0.57;;
27889;SDS011;15238;49.082;9.102;2023-05-10T09:05:38;1.25;;;0.70;;
27889;SDS011;15238;49.082;9.102;2023-05-10T09:07:39;0.55;;;0.40;;
27889;SDS011;15238;49.082;9.102;2023-05-10T09:09:40;1.65;;;0.70;;
27889;SDS011;15238;49.082;9.102;2023-05-10T09:11:40;0.68;;;0.50;;
27889;SDS011;15238;49.082;9.102;2023-05-10T09:13:41;0.95;;;0.40;;
27889;SDS011;15238;49.082;9.102;2023-05-10T09:15:43;0.52;;;0.52;;
27889;SDS011;15238;49.082;9.102;2023-05-10T09:17:45;0.80;;;0.65;;
27889;SDS011;15238;49.082;9.102;2023-05-10T09:19:46;0.70;;;0.50;;
27889;SDS011;15238;49.082;9.102;2023-05-10T09:21:46;3.25;;;0.40;;
27889;SDS011;15238;49.082;9.102;2023-05-10T09:23:48;2.38;;;0.50;;
27889;SDS011;15238;49.082;9.102;2023-05-10T09:26:01;1.25;;;0.32;;
27889;SDS011;15238;49.082;9.102;2023-05-10T09:28:07;2.67;;;0.70;;
27889;SDS011;15238;49.082;9.102;2023-05-10T09:30:09;1.35;;;0.50;;
27889;SDS011;15238;49.082;9.102;2023-05-10T09:32:09;0.52;;;0.43;;
27889;SDS011;15238;49.082;9.102;2023-05-10T09:34:10;0.68;;;0.50;;
27889;SDS011;15238;49.082;9.102;2023-05-10T09:36:10;0.63;;;0.40;;
27889;SDS011;15238;49.082;9.102;2023-05-10T09:38:11;0.90;;;0.50;;
27889;SDS011;15238;49.082;9.102;2023-05-10T09:40:12;1.65;;;0.68;;
27889;SDS011;15238;49.082;9.102;2023-05-10T09:42:17;0.60;;;0.47;;
27889;SDS011;15238;49.082;9.102;2023-05-10T09:44:18;1.70;;;0.55;;
27889;SDS011;15238;49.082;9.102;2023-05-10T09:46:19;0.40;;;0.30;;
27889;SDS011;15238;49.082;9.102;2023-05-10T09:48:21;0.50;;;0.50;;
27889;SDS011;15238;49.082;9.102;2023-05-10T09:50:23;1.98;;;0.90;;
27889;SDS011;15238;49.082;9.102;2023-05-10T09:52:25;0.88;;;0.57;;
27889;SDS011;15238;49.082;9.102;2023-05-10T09:54:25;1.13;;;0.40;;
27889;SDS011;15238;49.082;9.102;2023-05-10T09:56:35;0.75;;;0.63;;
27889;SDS011;15238;49.082;9.102;2023-05-10T09:58:38;0.32;;;0.30;;
27889;SDS011;15238;49.082;9.102;2023-05-10T10:00:40;3.75;;;0.70;;
27889;SDS011;15238;49.082;9.102;2023-05-10T10:02:42;1.45;;;0.30;;
27889;SDS011;15238;49.082;9.102;2023-05-10T10:04:42;0.88;;;0.57;;
27889;SDS011;15238;49.082;9.102;2023-05-10T10:06:43;4.80;;;0.82;;
27889;SDS011;15238;49.082;9.102;2023-05-10T10:08:44;0.80;;;0.50;;
27889;SDS011;15238;49.082;9.102;2023-05-10T10:10:45;0.55;;;0.30;;
27889;SDS011;15238;49.082;9.102;2023-05-10T10:12:47;7.45;;;0.80;;
27889;SDS011;15238;49.082;9.102;2023-05-10T10:14:47;2.55;;;0.60;;
27889;SDS011;15238;49.082;9.102;2023-05-10T10:16:50;2.25;;;0.68;;
27889;SDS011;15238;49.082;9.102;2023-05-10T10:18:51;0.98;;;0.50;;
27889;SDS011;15238;49.082;9.102;2023-05-10T10:20:51;1.00;;;0.70;;
27889;SDS011;15238;49.082;9.102;2023-05-10T10:22:54;1.25;;;0.63;;
27889;SDS011;15238;49.082;9.102;2023-05-10T10:24:54;1.67;;;0.82;;
27889;SDS011;15238;49.082;9.102;2023-05-10T10:26:55;2.95;;;1.20;;
27889;SDS011;15238;49.082;9.102;2023-05-10T10:29:08;3.27;;;1.30;;
27889;SDS011;15238;49.082;9.102;2023-05-10T10:31:32;1.60;;;0.70;;
27889;SDS011;15238;49.082;9.102;2023-05-10T10:35:58;1.23;;;0.70;;
27889;SDS011;15238;49.082;9.102;2023-05-10T10:38:00;2.75;;;0.93;;
27889;SDS011;15238;49.082;9.102;2023-05-10T10:40:00;1.25;;;0.40;;
27889;SDS011;15238;49.082;9.102;2023-05-10T10:44:43;3.15;;;0.98;;
27889;SDS011;15238;49.082;9.102;2023-05-10T10:49:11;1.55;;;0.50;;
27889;SDS011;15238;49.082;9.102;2023-05-10T10:51:15;1.27;;;0.40;;
27889;SDS011;15238;49.082;9.102;2023-05-10T10:53:15;2.42;;;0.68;;
27889;SDS011;15238;49.082;9.102;2023-05-10T10:55:19;1.20;;;0.57;;
27889;SDS011;15238;49.082;9.102;2023-05-10T10:59:27;0.85;;;0.50;;
27889;SDS011;15238;49.082;9.102;2023-05-10T11:01:32;2.72;;;0.98;;
27889;SDS011;15238;49.082;9.102;2023-05-10T11:03:34;3.40;;;0.68;;
27889;SDS011;15238;49.082;9.102;2023-05-10T11:05:36;0.65;;;0.55;;
27889;SDS011;15238;49.082;9.102;2023-05-10T11:07:42;3.00;;;0.68;;
27889;SDS011;15238;49.082;9.102;2023-05-10T11:10:03;3.40;;;0.50;;
27889;SDS011;15238;49.082;9.102;2023-05-10T11:12:07;1.52;;;0.70;;
27889;SDS011;15238;49.082;9.102;2023-05-10T11:14:08;1.10;;;0.63;;
27889;SDS011;15238;49.082;9.102;2023-05-10T11:16:22;1.67;;;0.50;;
27889;SDS011;15238;49.082;9.102;2023-05-10T11:18:24;3.05;;;0.65;;
27889;SDS011;15238;49.082;9.102;2023-05-10T11:20:32;2.25;;;0.50;;
27889;SDS011;15238;49.082;9.102;2023-05-10T11:22:51;1.27;;;0.70;;
27889;SDS011;15238;49.082;9.102;2023-05-10T11:24:58;1.08;;;0.70;;
27889;SDS011;15238;49.082;9.102;2023-05-10T11:26:59;1.92;;;0.80;;
27889;SDS011;15238;49.082;9.102;2023-05-10T11:28:59;1.27;;;0.50;;
27889;SDS011;15238;49.082;9.102;2023-05-10T11:31:01;3.35;;;1.17;;
27889;SDS011;15238;49.082;9.102;2023-05-10T11:33:02;0.85;;;0.50;;
27889;SDS011;15238;49.082;9.102;2023-05-10T11:35:06;1.10;;;0.63;;
27889;SDS011;15238;49.082;9.102;2023-05-10T11:37:11;0.50;;;0.45;;
27889;SDS011;15238;49.082;9.102;2023-05-10T11:39:11;9.05;;;0.65;;
27889;SDS011;15238;49.082;9.102;2023-05-10T11:41:12;1.05;;;0.73;;
27889;SDS011;15238;49.082;9.102;2023-05-10T11:43:13;2.17;;;0.57;;
27889;SDS011;15238;49.082;9.102;2023-05-10T11:45:14;2.85;;;0.70;;
27889;SDS011;15238;49.082;9.102;2023-05-10T11:47:15;1.98;;;0.68;;
27889;SDS011;15238;49.082;9.102;2023-05-10T11:49:15;2.30;;;0.63;;
27889;SDS011;15238;49.082;9.102;2023-05-10T11:51:19;2.95;;;0.60;;
27889;SDS011;15238;49.082;9.102;2023-05-10T11:53:21;3.22;;;0.70;;
27889;SDS011;15238;49.082;9.102;2023-05-10T11:55:21;2.58;;;0.57;;
27889;SDS011;15238;49.082;9.102;2023-05-10T11:57:26;1.42;;;0.63;;
27889;SDS011;15238;49.082;9.102;2023-05-10T11:59:28;1.67;;;0.70;;
27889;SDS011;15238;49.082;9.102;2023-05-10T12:01:29;2.75;;;0.70;;
27889;SDS011;15238;49.082;9.102;2023-05-10T12:03:30;0.93;;;0.50;;
27889;SDS011;15238;49.082;9.102;2023-05-10T12:05:32;3.08;;;0.90;;
27889;SDS011;15238;49.082;9.102;2023-05-10T12:07:33;2.38;;;0.47;;
27889;SDS011;15238;49.082;9.102;2023-05-10T12:09:34;1.48;;;1.02;;
27889;SDS011;15238;49.082;9.102;2023-05-10T12:11:39;4.30;;;1.00;;
27889;SDS011;15238;49.082;9.102;2023-05-10T12:13:41;3.72;;;0.90;;
27889;SDS011;15238;49.082;9.102;2023-05-10T12:15:43;4.30;;;1.20;;
27889;SDS011;15238;49.082;9.102;2023-05-10T12:17:44;3.53;;;0.95;;
27889;SDS011;15238;49.082;9.102;2023-05-10T12:19:44;2.63;;;0.82;;
27889;SDS011;15238;49.082;9.102;2023-05-10T12:21:45;1.67;;;1.10;;
27889;SDS011;15238;49.082;9.102;2023-05-10T12:23:46;3.70;;;0.98;;
27889;SDS011;15238;49.082;9.102;2023-05-10T12:25:49;4.68;;;1.05;;
27889;SDS011;15238;49.082;9.102;2023-05-10T12:27:51;2.10;;;1.00;;
27889;SDS011;15238;49.082;9.102;2023-05-10T12:29:53;4.88;;;0.88;;
27889;SDS011;15238;49.082;9.102;2023-05-10T12:31:55;1.55;;;0.80;;
27889;SDS011;15238;49.082;9.102;2023-05-10T12:33:56;2.45;;;0.68;;
27889;SDS011;15238;49.082;9.102;2023-05-10T12:35:58;2.38;;;0.75;;
27889;SDS011;15238;49.082;9.102;2023-05-10T12:37:59;1.88;;;0.75;;